Accueil
METAR-TAF:

METAR-TAF

Aéroports :

Aéroport de Nevers-Fourchambault

Nevers, France

latitude: 47-00N, longitude: 003-06E, altitude: 180 m

Observation

Le bulletin a été fait il y a 7 heures et 29 minutes, à 18:00 UTC
Vent 5 kt de sud-ouest
Température 6°C
Humidité 87%
Pression 1010 hPa
Visibilité 10 km ou plus
Nuages fragmentés à une hauteur de 4300 ft
Nuages fragmentés à une hauteur de 12000 ft

METAR: LFQG 111800Z AUTO 23005KT 9999 BKN043 BKN120 06/04 Q1010

Heure: 02:29 (01:29 UTC)


TAF: absent

Observations et prévisions météorologiques de plus de 4000 aéroports (messages METAR et TAF).

Les stations disponibles sont représentées par des disques jaunes et rouges sur la carte.

Passer la souris dessus pour voir le nom de la station.

Cliquer dessus pour voir les observations et prévisions météorologiques.

Pour changer de carte: cliquez sur les boutons verts avec une croix noire pour zoomer, sur le bouton vert avec un tiret pour effectuer un zoom arrière, ou sur les flèches vertes pour les cartes adjacentes.


METAR-TAF: